createdAt,value
2024-02-27T06:57:53.216Z,99.99
2024-02-27T06:58:54.277Z,99.99
2024-02-27T06:59:54.381Z,99.99
2024-02-27T07:00:54.541Z,99.99
2024-02-27T07:01:54.526Z,99.99
2024-02-27T07:02:54.641Z,99.99
2024-02-27T07:03:54.780Z,99.99
2024-02-27T07:04:54.808Z,99.99
2024-02-27T07:05:55.075Z,99.99
2024-02-27T07:06:55.061Z,99.99
2024-02-27T07:07:55.040Z,99.99
2024-02-27T07:08:55.126Z,99.99
2024-02-27T07:09:55.214Z,99.99
2024-02-27T07:10:55.317Z,99.94
2024-02-27T07:11:55.362Z,99.84
2024-02-27T07:12:55.424Z,99.73
2024-02-27T07:13:55.613Z,99.94
2024-02-27T07:14:55.597Z,99.94
2024-02-27T07:15:55.736Z,99.94
2024-02-27T07:16:55.776Z,99.94
2024-02-27T07:17:55.894Z,99.63
2024-02-27T07:18:56.132Z,99.52
2024-02-27T07:19:56.021Z,99.48
2024-02-27T07:20:56.075Z,99.27
2024-02-27T07:21:56.181Z,99.37
2024-02-27T07:22:56.228Z,99.37
2024-02-27T07:23:56.373Z,99.16
2024-02-27T07:24:56.420Z,98.85
2024-02-27T07:25:56.530Z,98.54
2024-02-27T07:26:56.639Z,98.44
2024-02-27T07:27:56.700Z,98.65
2024-02-27T07:28:56.756Z,98.75
2024-02-27T07:29:56.833Z,98.75
2024-02-27T07:30:56.899Z,98.85
2024-02-27T07:31:56.963Z,98.85
2024-02-27T07:32:57.075Z,98.85
2024-02-27T07:33:57.198Z,99.16
2024-02-27T07:34:57.260Z,99.16
2024-02-27T07:35:57.284Z,98.96
2024-02-27T07:36:57.336Z,98.65
2024-02-27T07:37:57.453Z,98.23
2024-02-27T07:38:57.573Z,98.13
2024-02-27T07:39:57.636Z,98.13
2024-02-27T07:40:57.694Z,98.23
2024-02-27T07:41:57.790Z,98.44
2024-02-27T07:42:57.845Z,98.19
2024-02-27T07:43:57.979Z,98.08
2024-02-27T07:44:58.114Z,98.08
2024-02-27T07:45:58.110Z,97.67
2024-02-27T07:46:58.181Z,97.45
2024-02-27T07:47:58.384Z,97.67
2024-02-27T07:48:58.466Z,97.88
2024-02-27T07:49:58.486Z,97.45
2024-02-27T07:50:58.565Z,97.35
2024-02-27T07:51:58.720Z,97.25
2024-02-27T07:52:58.714Z,97.56
2024-02-27T07:53:58.844Z,97.35
2024-02-27T07:54:58.919Z,97.56
2024-02-27T07:55:58.986Z,97.56
2024-02-27T07:56:59.069Z,97.67
2024-02-27T07:57:59.111Z,97.25
2024-02-27T07:58:59.173Z,96.94
2024-02-27T08:00:00.656Z,97.04
2024-02-27T08:00:59.451Z,97.14
2024-02-27T08:01:59.486Z,97.56
2024-02-27T08:02:59.660Z,97.31
2024-02-27T08:03:59.784Z,97.00
2024-02-27T08:04:59.804Z,96.48
2024-02-27T08:05:59.983Z,96.58
2024-02-27T08:07:00.060Z,96.89
2024-02-27T08:08:00.071Z,96.89
2024-02-27T08:09:00.076Z,97.00
2024-02-27T08:10:00.226Z,97.31
2024-02-27T08:11:00.274Z,96.79
2024-02-27T08:12:00.386Z,96.48
2024-02-27T08:13:00.453Z,96.69
2024-02-27T08:14:00.503Z,96.79
2024-02-27T08:15:00.665Z,96.69
2024-02-27T08:16:00.692Z,96.89
2024-02-27T08:17:00.736Z,96.95
2024-02-27T08:18:00.989Z,96.33
2024-02-27T08:19:01.085Z,95.96
2024-02-27T08:20:00.965Z,96.33
2024-02-27T08:21:01.222Z,96.54
2024-02-27T08:22:01.157Z,96.33
2024-02-27T08:23:01.209Z,95.92
2024-02-27T08:24:01.316Z,96.12
2024-02-27T08:25:01.387Z,96.02
2024-02-27T08:26:01.448Z,95.81
2024-02-27T08:27:04.659Z,95.92
2024-02-27T08:28:01.757Z,96.44
2024-02-27T08:29:01.694Z,95.50
2024-02-27T08:30:01.836Z,95.81
2024-02-27T08:31:02.025Z,95.81
2024-02-27T08:32:02.002Z,95.50
2024-02-27T08:33:02.314Z,95.19
2024-02-27T08:34:02.320Z,95.09
2024-02-27T08:35:02.409Z,95.71
2024-02-27T08:36:02.390Z,96.50
2024-02-27T08:37:02.433Z,96.19
2024-02-27T08:38:02.524Z,95.25
2024-02-27T08:39:02.615Z,95.46
2024-02-27T08:40:02.679Z,95.67
2024-02-27T08:41:02.781Z,95.46
2024-02-27T08:42:02.880Z,95.77
2024-02-27T08:43:02.923Z,95.67
2024-02-27T08:44:03.012Z,95.25
2024-02-27T08:45:03.163Z,94.94
2024-02-27T08:46:03.223Z,94.84
2024-02-27T08:47:03.301Z,95.04
2024-02-27T08:48:03.486Z,95.41
2024-02-27T08:49:03.576Z,95.72
2024-02-27T08:50:03.530Z,95.20
2024-02-27T08:51:03.613Z,95.00
2024-02-27T08:52:05.040Z,93.75
2024-02-27T08:53:03.811Z,92.93
2024-02-27T08:54:03.955Z,93.23
2024-02-27T08:55:03.933Z,93.65
2024-02-27T08:56:04.050Z,93.54
2024-02-27T08:57:04.126Z,93.90
2024-02-27T08:58:04.179Z,94.68
2024-02-27T08:59:04.239Z,94.68
2024-02-27T09:00:04.394Z,94.58
2024-02-27T09:01:04.530Z,94.33
2024-02-27T09:02:04.511Z,93.71
2024-02-27T09:03:06.240Z,93.08
2024-02-27T09:04:04.816Z,93.02
2024-02-27T09:05:04.735Z,94.17
2024-02-27T09:06:04.925Z,93.85
2024-02-27T09:07:04.985Z,93.75
2024-02-27T09:08:04.993Z,93.65
2024-02-27T09:09:06.885Z,93.75
2024-02-27T09:10:05.152Z,93.81
2024-02-27T09:11:05.282Z,93.40
2024-02-27T09:12:05.320Z,94.02
2024-02-27T09:13:06.313Z,92.88
2024-02-27T09:14:05.457Z,92.57
2024-02-27T09:15:08.593Z,92.98
2024-02-27T09:16:05.660Z,93.56
2024-02-27T09:17:05.736Z,93.56
2024-02-27T09:18:05.891Z,93.25
2024-02-27T09:19:05.965Z,92.43
2024-02-27T09:20:05.969Z,93.25
2024-02-27T09:21:06.089Z,93.56
2024-02-27T09:22:06.174Z,92.94
2024-02-27T09:23:06.213Z,92.53
2024-02-27T09:24:06.342Z,91.60
2024-02-27T09:25:06.344Z,93.04
2024-02-27T09:26:06.443Z,93.00
2024-02-27T09:27:06.556Z,92.38
2024-02-27T09:28:06.680Z,92.53
2024-02-27T09:29:06.653Z,93.10
2024-02-27T09:30:06.784Z,92.74
2024-02-27T09:31:10.121Z,92.74
2024-02-27T09:32:06.943Z,93.93
2024-02-27T09:33:07.061Z,92.80
2024-02-27T09:34:07.111Z,92.07
2024-02-27T09:35:07.180Z,91.76
2024-02-27T09:36:07.300Z,92.49
2024-02-27T09:37:07.367Z,91.86
2024-02-27T09:38:07.399Z,91.86
2024-02-27T09:39:07.495Z,91.35
2024-02-27T09:40:07.615Z,91.55
2024-02-27T09:41:07.650Z,91.45
2024-02-27T09:42:07.779Z,92.13
2024-02-27T09:43:07.828Z,92.13
2024-02-27T09:44:07.878Z,90.93
2024-02-27T09:45:08.447Z,91.35
2024-02-27T09:46:08.053Z,92.24
2024-02-27T09:47:08.240Z,91.82
2024-02-27T09:48:08.315Z,91.55
2024-02-27T09:49:08.386Z,91.55
2024-02-27T09:50:08.530Z,92.49
2024-02-27T09:51:08.603Z,92.18
2024-02-27T09:52:08.592Z,91.35
2024-02-27T09:53:08.680Z,91.28
2024-02-27T09:54:08.812Z,91.08
2024-02-27T09:55:08.880Z,92.59
2024-02-27T09:56:09.006Z,91.97
2024-02-27T09:57:09.037Z,92.59
2024-02-27T09:58:09.429Z,92.59
2024-02-27T09:59:09.209Z,91.45
2024-02-27T10:00:09.321Z,92.38
2024-02-27T10:01:09.482Z,92.85
2024-02-27T10:02:09.619Z,92.13
2024-02-27T10:03:09.587Z,90.72
2024-02-27T10:04:09.731Z,91.35
2024-02-27T10:05:09.753Z,92.18
2024-02-27T10:06:09.783Z,91.61
2024-02-27T10:07:09.812Z,90.47
2024-02-27T10:08:09.883Z,90.26
2024-02-27T10:09:10.011Z,91.20
2024-02-27T10:10:10.031Z,90.78
2024-02-27T10:11:10.131Z,90.47
2024-02-27T10:12:10.200Z,91.93
2024-02-27T10:13:10.249Z,90.68
2024-02-27T10:14:10.489Z,90.37
2024-02-27T10:15:11.419Z,90.99
2024-02-27T10:16:10.460Z,91.61
2024-02-27T10:17:10.529Z,90.78
2024-02-27T10:18:10.719Z,90.89
2024-02-27T10:19:10.834Z,90.89
2024-02-27T10:20:10.867Z,91.41
2024-02-27T10:21:10.909Z,90.06
2024-02-27T10:22:10.935Z,89.75
2024-02-27T10:23:11.014Z,89.75
2024-02-27T10:24:11.114Z,90.23
2024-02-27T10:25:11.162Z,90.33
2024-02-27T10:26:11.232Z,89.61
2024-02-27T10:27:11.349Z,89.92
2024-02-27T10:28:11.353Z,90.44
2024-02-27T10:29:11.437Z,88.46
2024-02-27T10:30:11.554Z,88.98
2024-02-27T10:31:11.621Z,90.33
2024-02-27T10:32:11.657Z,89.92
2024-02-27T10:33:11.859Z,89.61
2024-02-27T10:34:11.905Z,90.02
2024-02-27T10:35:12.339Z,89.50
2024-02-27T10:36:12.073Z,89.50
2024-02-27T10:37:12.216Z,90.91
2024-02-27T10:38:12.110Z,88.84
2024-02-27T10:39:12.181Z,88.01
2024-02-27T10:40:12.236Z,88.01
2024-02-27T10:41:12.336Z,88.32
2024-02-27T10:42:12.468Z,88.07
2024-02-27T10:43:12.492Z,87.35
2024-02-27T10:44:14.641Z,86.52
2024-02-27T10:45:13.073Z,87.04
2024-02-27T10:46:13.950Z,87.62
2024-02-27T10:47:12.826Z,87.68
2024-02-27T10:48:12.929Z,86.24
2024-02-27T10:49:14.163Z,85.62
2024-02-27T10:50:13.219Z,85.89
2024-02-27T10:51:13.174Z,84.75
2024-02-27T10:52:13.197Z,85.78
2024-02-27T10:53:13.274Z,85.62
2024-02-27T10:54:13.385Z,87.73
2024-02-27T10:55:13.461Z,87.37
2024-02-27T10:56:13.565Z,86.96
2024-02-27T10:57:13.640Z,87.41
2024-02-27T10:58:13.667Z,86.59
2024-02-27T10:59:13.870Z,85.66
2024-02-27T11:00:13.894Z,85.39
2024-02-27T11:01:14.118Z,86.01
2024-02-27T11:02:14.034Z,87.00
2024-02-27T11:03:14.139Z,86.49
2024-02-27T11:04:14.157Z,85.97
2024-02-27T11:05:14.323Z,86.07
2024-02-27T11:06:14.396Z,87.00
2024-02-27T11:07:14.463Z,86.38
2024-02-27T11:08:14.479Z,85.72
2024-02-27T11:09:14.587Z,86.24
2024-02-27T11:10:14.644Z,86.44
2024-02-27T11:11:15.155Z,86.03
2024-02-27T11:12:15.113Z,86.24
2024-02-27T11:13:14.886Z,84.17
2024-02-27T11:14:14.959Z,83.39
2024-02-27T11:15:15.093Z,85.62
2024-02-27T11:16:15.148Z,85.58
2024-02-27T11:17:15.413Z,84.65
2024-02-27T11:18:15.388Z,83.20
2024-02-27T11:19:15.503Z,83.93
2024-02-27T11:20:15.605Z,84.03
2024-02-27T11:21:15.552Z,84.13
2024-02-27T11:22:15.607Z,84.09
2024-02-27T11:23:15.697Z,85.44
2024-02-27T11:24:15.835Z,85.60
2024-02-27T11:25:15.852Z,83.81
2024-02-27T11:26:15.950Z,81.61
2024-02-27T11:27:16.054Z,80.99
2024-02-27T11:28:16.083Z,80.51
2024-02-27T11:29:16.165Z,82.10
2024-02-27T11:30:16.283Z,84.34
2024-02-27T11:31:16.323Z,84.65
2024-02-27T11:32:16.411Z,84.41
2024-02-27T11:33:16.569Z,82.61
2024-02-27T11:34:16.632Z,81.51
2024-02-27T11:35:16.652Z,81.93
2024-02-27T11:36:16.729Z,83.23
2024-02-27T11:37:16.767Z,83.50
2024-02-27T11:38:16.848Z,82.37
2024-02-27T11:39:17.023Z,80.37
2024-02-27T11:40:17.006Z,81.30
2024-02-27T11:41:17.061Z,80.68
2024-02-27T11:42:17.183Z,80.20
2024-02-27T11:43:17.336Z,80.41
2024-02-27T11:44:17.312Z,81.68
2024-02-27T11:45:17.452Z,81.23
2024-02-27T11:46:17.437Z,82.16
2024-02-27T11:47:17.507Z,81.44
2024-02-27T11:48:17.648Z,81.03
2024-02-27T11:49:17.755Z,80.93
2024-02-27T11:50:18.726Z,79.69
2024-02-27T11:51:17.969Z,79.72
2024-02-27T11:52:17.950Z,80.34
2024-02-27T11:53:18.169Z,80.55
2024-02-27T11:54:18.132Z,80.96
2024-02-27T11:55:18.197Z,80.65
2024-02-27T11:56:18.280Z,80.44
2024-02-27T11:57:18.386Z,81.00
2024-02-27T11:58:18.411Z,82.96
2024-02-27T11:59:18.514Z,81.31
2024-02-27T12:00:18.604Z,81.62
2024-02-27T12:01:18.650Z,83.17
2024-02-27T12:02:18.728Z,82.10
2024-02-27T12:03:18.833Z,81.58
2024-02-27T12:04:18.933Z,80.76
2024-02-27T12:05:18.971Z,81.89
2024-02-27T12:06:19.270Z,82.82
2024-02-27T12:07:19.140Z,82.30
2024-02-27T12:08:19.283Z,82.55
2024-02-27T12:09:19.353Z,82.69
2024-02-27T12:10:19.372Z,82.59
2024-02-27T12:11:19.464Z,83.58
2024-02-27T12:12:19.623Z,84.16
2024-02-27T12:13:19.638Z,83.33
2024-02-27T12:14:19.728Z,82.47
2024-02-27T12:15:19.808Z,81.13
2024-02-27T12:16:19.864Z,80.41
2024-02-27T12:17:19.958Z,82.26
2024-02-27T12:18:20.133Z,82.68
2024-02-27T12:19:20.156Z,81.75
2024-02-27T12:20:20.186Z,81.13
2024-02-27T12:21:20.257Z,81.75
2024-02-27T12:22:20.330Z,80.41
2024-02-27T12:23:20.383Z,81.54
2024-02-27T12:24:20.711Z,83.56
2024-02-27T12:25:20.593Z,81.81
2024-02-27T12:26:20.670Z,82.29
2024-02-27T12:27:20.790Z,81.67
2024-02-27T12:28:20.862Z,81.37
2024-02-27T12:29:20.929Z,79.61
2024-02-27T12:30:22.702Z,80.44
2024-02-27T12:31:21.089Z,79.79
2024-02-27T12:32:21.158Z,79.79
2024-02-27T12:33:21.298Z,80.09
2024-02-27T12:34:21.348Z,80.54
2024-02-27T12:35:21.363Z,81.37
2024-02-27T12:36:21.468Z,80.58
2024-02-27T12:37:21.532Z,81.77
2024-02-27T12:38:21.595Z,80.65
2024-02-27T12:39:21.702Z,79.86
2024-02-27T12:40:21.761Z,80.99
2024-02-27T12:41:21.837Z,80.20
2024-02-27T12:42:21.993Z,80.68
2024-02-27T12:43:21.992Z,79.96
2024-02-27T12:44:22.106Z,79.41
2024-02-27T12:45:22.192Z,79.10
2024-02-27T12:46:25.342Z,80.85
2024-02-27T12:47:22.440Z,78.69
2024-02-27T12:48:22.749Z,79.14
2024-02-27T12:49:22.608Z,79.07
2024-02-27T12:50:22.561Z,79.58
2024-02-27T12:51:22.688Z,79.48
2024-02-27T12:52:22.744Z,80.34
2024-02-27T12:53:22.966Z,81.48
2024-02-27T12:54:23.105Z,80.86
2024-02-27T12:55:22.978Z,81.58
2024-02-27T12:56:23.029Z,81.07
2024-02-27T12:57:23.205Z,80.30
2024-02-27T12:58:23.226Z,80.10
2024-02-27T12:59:23.294Z,79.79
2024-02-27T13:00:23.431Z,81.13
2024-02-27T13:01:23.497Z,78.93
2024-02-27T13:02:23.556Z,77.73
2024-02-27T13:03:24.313Z,78.55
2024-02-27T13:04:23.716Z,79.79
2024-02-27T13:05:23.798Z,80.14
2024-02-27T13:06:24.035Z,81.00
2024-02-27T13:07:24.097Z,79.97
2024-02-27T13:08:24.017Z,81.10
2024-02-27T13:09:24.143Z,79.11
2024-02-27T13:10:24.319Z,80.76
2024-02-27T13:11:24.348Z,80.51
2024-02-27T13:12:24.399Z,81.30
2024-02-27T13:13:24.477Z,80.27
2024-02-27T13:14:24.532Z,78.89
2024-02-27T13:15:24.614Z,77.45
2024-02-27T13:16:24.984Z,77.93
2024-02-27T13:17:24.810Z,77.31
2024-02-27T13:18:25.031Z,77.51
2024-02-27T13:19:25.054Z,78.96
2024-02-27T13:20:25.052Z,78.44
2024-02-27T13:21:25.163Z,78.34
2024-02-27T13:22:25.239Z,78.69
2024-02-27T13:23:26.934Z,79.30
2024-02-27T13:24:25.438Z,80.75
2024-02-27T13:25:25.492Z,79.00
2024-02-27T13:26:25.589Z,79.72
2024-02-27T13:27:25.698Z,78.89
2024-02-27T13:28:25.735Z,79.55
2024-02-27T13:29:25.846Z,79.75
2024-02-27T13:30:25.943Z,78.89
2024-02-27T13:31:25.966Z,78.34
2024-02-27T13:32:26.127Z,77.72
2024-02-27T13:33:26.563Z,77.93
2024-02-27T13:34:26.323Z,78.47
2024-02-27T13:35:26.421Z,78.03
2024-02-27T13:36:26.411Z,76.48
2024-02-27T13:37:26.490Z,75.67
2024-02-27T13:38:26.601Z,75.59
2024-02-27T13:39:26.748Z,76.79
2024-02-27T13:40:26.771Z,75.87
2024-02-27T13:41:26.859Z,75.97
2024-02-27T13:42:26.942Z,76.62
2024-02-27T13:43:27.045Z,78.47
2024-02-27T13:44:27.114Z,76.76
2024-02-27T13:45:27.236Z,77.72
2024-02-27T13:46:27.286Z,77.00
2024-02-27T13:47:27.400Z,78.24
2024-02-27T13:48:27.543Z,77.66
2024-02-27T13:49:27.565Z,78.38
2024-02-27T13:50:27.643Z,78.11
2024-02-27T13:51:27.784Z,78.72
2024-02-27T13:52:27.798Z,78.93
2024-02-27T13:53:27.900Z,79.55
2024-02-27T13:54:27.990Z,79.14
2024-02-27T13:55:28.049Z,78.93
2024-02-27T13:56:28.161Z,79.44
2024-02-27T13:57:28.276Z,79.17
2024-02-27T13:58:28.891Z,79.17
2024-02-27T13:59:28.457Z,79.38
2024-02-27T14:00:28.552Z,79.96
2024-02-27T14:01:28.665Z,79.41
2024-02-27T14:02:28.684Z,78.20
2024-02-27T14:03:28.849Z,75.59
2024-02-27T14:04:30.324Z,74.67
2024-02-27T14:05:29.041Z,73.71
2024-02-27T14:06:29.088Z,72.99
2024-02-27T14:07:29.192Z,72.68
2024-02-27T14:08:29.198Z,76.17
2024-02-27T14:09:29.343Z,73.19
2024-02-27T14:10:29.413Z,72.44
2024-02-27T14:11:29.526Z,72.65
2024-02-27T14:12:29.602Z,71.93
2024-02-27T14:13:29.617Z,71.56
2024-02-27T14:14:29.694Z,69.75
2024-02-27T14:15:29.853Z,69.10
2024-02-27T14:16:29.860Z,66.72
2024-02-27T14:17:29.962Z,66.48
2024-02-27T14:18:30.119Z,66.28
2024-02-27T14:19:30.243Z,67.19
2024-02-27T14:20:30.219Z,66.04
2024-02-27T14:21:30.324Z,65.09
2024-02-27T14:22:30.383Z,65.46
2024-02-27T14:23:30.447Z,66.82
2024-02-27T14:24:30.535Z,67.60
2024-02-27T14:25:30.614Z,67.19
2024-02-27T14:26:30.669Z,67.19
2024-02-27T14:27:30.737Z,66.04
2024-02-27T14:28:30.816Z,65.77
2024-02-27T14:29:30.893Z,63.93
2024-02-27T14:30:31.010Z,63.81
2024-02-27T14:31:31.058Z,64.99
2024-02-27T14:32:31.193Z,65.93
2024-02-27T14:33:31.326Z,69.47
2024-02-27T14:34:31.486Z,72.96
2024-02-27T14:35:31.532Z,74.22
2024-02-27T14:36:31.533Z,73.81
2024-02-27T14:37:31.594Z,74.46
2024-02-27T14:38:31.667Z,75.08
2024-02-27T14:39:31.834Z,76.01
2024-02-27T14:40:31.830Z,76.42
2024-02-27T14:41:31.897Z,76.31
2024-02-27T14:42:32.038Z,76.83
2024-02-27T14:43:32.058Z,76.42
2024-02-27T14:44:32.168Z,76.83
2024-02-27T14:45:32.304Z,77.03
2024-02-27T14:46:32.315Z,77.34
2024-02-27T14:47:32.435Z,77.41
2024-02-27T14:48:32.545Z,75.87
2024-02-27T14:49:32.670Z,76.21
2024-02-27T14:50:32.706Z,77.07
2024-02-27T14:51:32.838Z,78.24
2024-02-27T14:52:32.878Z,78.86
2024-02-27T14:53:32.921Z,78.86
2024-02-27T14:54:33.053Z,79.82
2024-02-27T14:55:33.125Z,80.02
2024-02-27T14:56:33.191Z,79.82
2024-02-27T14:57:33.300Z,79.30
2024-02-27T14:58:33.373Z,79.51
2024-02-27T14:59:33.404Z,79.82
2024-02-27T15:00:33.621Z,80.75
2024-02-27T15:01:36.581Z,79.00
2024-02-27T15:02:33.668Z,79.10
2024-02-27T15:03:33.790Z,79.72
2024-02-27T15:04:33.842Z,80.37
2024-02-27T15:05:33.967Z,80.68
2024-02-27T15:06:34.024Z,80.27
2024-02-27T15:07:34.103Z,80.06
2024-02-27T15:08:34.120Z,80.16
2024-02-27T15:09:34.234Z,79.72
2024-02-27T15:10:34.269Z,79.10
2024-02-27T15:11:34.371Z,79.34
2024-02-27T15:12:34.435Z,80.27
2024-02-27T15:13:34.491Z,80.99
2024-02-27T15:14:34.546Z,79.58
2024-02-27T15:15:34.745Z,79.69
2024-02-27T15:16:34.732Z,80.27
2024-02-27T15:17:34.848Z,77.93
2024-02-27T15:18:35.031Z,76.28
2024-02-27T15:19:35.250Z,76.07
2024-02-27T15:20:35.085Z,76.28
2024-02-27T15:21:35.218Z,77.45
2024-02-27T15:22:35.249Z,77.59
2024-02-27T15:23:35.345Z,77.51
2024-02-27T15:24:35.425Z,76.86
2024-02-27T15:25:35.492Z,75.35
2024-02-27T15:26:35.597Z,74.43
2024-02-27T15:27:35.714Z,75.35
2024-02-27T15:28:35.807Z,74.50
2024-02-27T15:29:35.859Z,73.68
2024-02-27T15:30:36.019Z,73.47
2024-02-27T15:31:36.008Z,73.88
2024-02-27T15:32:36.107Z,74.08
2024-02-27T15:33:36.222Z,75.04
2024-02-27T15:34:36.490Z,74.98
2024-02-27T15:35:36.849Z,75.32
2024-02-27T15:36:36.465Z,77.25
2024-02-27T15:37:36.495Z,78.58
2024-02-27T15:38:36.611Z,79.44
2024-02-27T15:39:36.767Z,79.55
2024-02-27T15:40:36.784Z,78.65
2024-02-27T15:41:36.850Z,77.58
2024-02-27T15:42:36.984Z,77.34
2024-02-27T15:43:36.970Z,75.87
2024-02-27T15:44:37.081Z,74.19
2024-02-27T15:45:37.189Z,74.43
2024-02-27T15:46:37.212Z,76.28
2024-02-27T15:47:37.326Z,76.52
2024-02-27T15:48:37.638Z,76.62
2024-02-27T15:49:37.725Z,77.28
2024-02-27T15:50:37.571Z,77.72
2024-02-27T15:51:37.667Z,77.93
2024-02-27T15:52:37.726Z,79.61
2024-02-27T15:53:37.791Z,79.88
2024-02-27T15:54:37.959Z,79.13
2024-02-27T15:55:37.937Z,77.72
2024-02-27T15:56:38.039Z,75.42
2024-02-27T15:57:38.132Z,74.12
2024-02-27T15:58:38.214Z,73.78
2024-02-27T15:59:38.260Z,72.75
2024-02-27T16:00:38.420Z,72.96
2024-02-27T16:01:38.502Z,72.00
2024-02-27T16:02:38.522Z,71.39
2024-02-27T16:03:38.798Z,71.25
2024-02-27T16:04:38.810Z,70.64
2024-02-27T16:05:38.837Z,71.18
2024-02-27T16:06:38.968Z,72.51
2024-02-27T16:07:38.973Z,74.26
2024-02-27T16:08:39.046Z,76.04
2024-02-27T16:09:39.221Z,77.76
2024-02-27T16:10:39.202Z,78.93
2024-02-27T16:11:39.277Z,79.14
2024-02-27T16:12:40.235Z,80.04
2024-02-27T16:13:39.429Z,80.86
2024-02-27T16:14:39.548Z,81.62
2024-02-27T16:15:39.663Z,82.03
2024-02-27T16:16:39.683Z,82.10
2024-02-27T16:17:39.762Z,81.34
2024-02-27T16:18:39.945Z,80.02
2024-02-27T16:19:40.156Z,78.10
2024-02-27T16:20:39.977Z,76.83
2024-02-27T16:21:40.070Z,76.76
2024-02-27T16:22:40.135Z,76.97
2024-02-27T16:23:40.208Z,76.97
2024-02-27T16:24:40.369Z,77.07
2024-02-27T16:25:40.382Z,77.17
2024-02-27T16:26:40.450Z,77.38
2024-02-27T16:27:40.546Z,78.55
2024-02-27T16:28:40.664Z,79.55
2024-02-27T16:29:40.706Z,80.30
2024-02-27T16:30:40.826Z,81.68
2024-02-27T16:31:40.852Z,82.86
2024-02-27T16:32:41.000Z,83.72
2024-02-27T16:33:41.209Z,84.44
2024-02-27T16:34:41.296Z,85.00
2024-02-27T16:35:41.189Z,85.62
2024-02-27T16:36:41.321Z,86.07
2024-02-27T16:37:41.386Z,86.49
2024-02-27T16:38:41.469Z,87.00
2024-02-27T16:39:41.593Z,87.10
2024-02-27T16:40:41.635Z,87.25
2024-02-27T16:41:44.072Z,87.76
2024-02-27T16:42:41.788Z,87.56
2024-02-27T16:43:41.841Z,87.87
2024-02-27T16:44:41.921Z,87.97
2024-02-27T16:45:42.043Z,88.28
2024-02-27T16:46:42.044Z,88.49
2024-02-27T16:47:42.144Z,88.49
2024-02-27T16:48:42.270Z,88.43
2024-02-27T16:49:42.455Z,88.43
2024-02-27T16:50:42.385Z,88.78
2024-02-27T16:51:42.599Z,89.19
2024-02-27T16:52:42.559Z,89.71
2024-02-27T16:53:42.613Z,89.96
2024-02-27T16:54:42.799Z,90.68
2024-02-27T16:55:42.829Z,91.24
2024-02-27T16:56:42.930Z,91.97
